Time;durP1;ratioP1;P1;durP2;ratioP2;P2;SDS_P1;SDS_P2;PMS_P1;PMS_P2;Temp;Humidity;BMP_temperature;BMP_pressure;BME280_temperature;BME280_humidity;BME280_pressure;Samples;Min_cycle;Max_cycle;Signal;HPM_P1;HPM_P2
2023/11/27 00:01:37;;;;;;;3.83;2.60;;;;;;;18.99;62.82;100800.28;5084448;28;20388;-37
2023/11/27 00:04:03;;;;;;;5.57;3.35;;;;;;;18.99;63.52;100797.53;5084840;28;20504;-36
2023/11/27 00:06:28;;;;;;;4.55;2.80;;;;;;;18.99;63.47;100794.78;5087150;28;20176;-37
2023/11/27 00:08:54;;;;;;;4.22;2.50;;;;;;;18.97;63.57;100780.53;5095767;28;20523;-37
2023/11/27 00:11:20;;;;;;;6.40;2.70;;;;;;;18.97;63.87;100781.34;5077461;28;20054;-37
2023/11/27 00:13:46;;;;;;;4.35;2.65;;;;;;;18.96;64.18;100776.97;5085179;28;20369;-36
2023/11/27 00:16:12;;;;;;;7.03;2.55;;;;;;;18.94;64.24;100765.44;5080319;28;20040;-37
2023/11/27 00:18:38;;;;;;;4.38;2.65;;;;;;;18.93;63.59;100766.53;5084350;28;20067;-36
2023/11/27 00:21:03;;;;;;;5.20;3.00;;;;;;;18.93;63.46;100755.53;5081593;28;20031;-36
2023/11/27 00:23:29;;;;;;;4.10;2.70;;;;;;;18.91;63.62;100758.59;5078494;28;20028;-37
2023/11/27 00:25:55;;;;;;;5.35;2.80;;;;;;;18.91;63.72;100755.03;5080790;28;20078;-38
2023/11/27 00:28:20;;;;;;;5.20;3.10;;;;;;;18.89;63.60;100748.97;5085572;28;20085;-38
2023/11/27 00:30:46;;;;;;;3.38;2.67;;;;;;;18.88;63.32;100741.81;5082800;28;20082;-36
2023/11/27 00:33:11;;;;;;;4.22;2.90;;;;;;;18.87;63.23;100737.44;5080625;28;20559;-37
2023/11/27 00:35:37;;;;;;;3.72;2.72;;;;;;;18.86;63.33;100733.03;5077504;28;20036;-36
2023/11/27 00:38:02;;;;;;;3.58;2.85;;;;;;;18.84;63.19;100722.34;5086722;28;20024;-35
2023/11/27 00:40:28;;;;;;;4.93;2.70;;;;;;;18.82;63.16;100710.84;5094254;28;20023;-38
2023/11/27 00:42:53;;;;;;;5.78;3.30;;;;;;;18.81;63.08;100711.97;5088206;28;20036;-37
2023/11/27 00:45:18;;;;;;;5.78;2.90;;;;;;;18.81;62.81;100702.88;5091280;28;20372;-34
2023/11/27 00:47:44;;;;;;;5.70;2.95;;;;;;;18.77;62.80;100697.97;5085960;28;20275;-35
2023/11/27 00:50:09;;;;;;;3.92;2.70;;;;;;;18.77;63.06;100697.97;5084403;28;20038;-35
2023/11/27 00:52:34;;;;;;;4.63;2.85;;;;;;;18.77;63.05;100692.50;5082030;28;20032;-37
2023/11/27 00:55:00;;;;;;;6.15;2.90;;;;;;;18.75;62.73;100686.44;5088481;28;20052;-35
2023/11/27 00:57:25;;;;;;;5.82;2.67;;;;;;;18.74;63.12;100681.25;5089559;28;20058;-38
2023/11/27 00:59:50;;;;;;;5.43;2.92;;;;;;;18.74;62.44;100670.28;5087159;28;20481;-35
2023/11/27 01:02:16;;;;;;;4.07;2.97;;;;;;;18.73;62.51;100663.13;5084157;28;20552;-35
2023/11/27 01:04:42;;;;;;;4.88;2.80;;;;;;;18.72;62.83;100661.50;5083386;28;20031;-36
2023/11/27 01:07:07;;;;;;;5.10;3.05;;;;;;;18.72;62.67;100658.75;5081259;28;20040;-36
2023/11/27 01:09:35;;;;;;;5.43;3.10;;;;;;;18.69;62.91;100656.59;5084945;28;20020;-36
2023/11/27 01:12:01;;;;;;;5.25;2.88;;;;;;;18.68;62.33;100646.72;5087822;28;20508;-36
2023/11/27 01:14:26;;;;;;;6.35;3.25;;;;;;;18.67;62.79;100639.56;5082573;28;20035;-36
2023/11/27 01:16:52;;;;;;;5.47;2.95;;;;;;;18.66;62.43;100636.00;5077948;28;20468;-37
2023/11/27 01:19:17;;;;;;;3.72;2.80;;;;;;;18.66;62.60;100627.75;5077807;28;20036;-36
2023/11/27 01:21:43;;;;;;;4.18;2.75;;;;;;;18.65;62.63;100633.53;5083176;28;20327;-37
2023/11/27 01:24:08;;;;;;;3.90;2.88;;;;;;;18.64;62.43;100624.50;5084615;28;20315;-38
2023/11/27 01:26:33;;;;;;;7.30;3.03;;;;;;;18.64;62.47;100620.91;5076941;28;20104;-36
2023/11/27 01:28:59;;;;;;;5.57;2.88;;;;;;;18.63;62.04;100622.06;5080218;28;20519;-38
2023/11/27 01:31:24;;;;;;;4.28;2.88;;;;;;;18.61;62.11;100616.81;5083960;28;20020;-37
2023/11/27 01:33:51;;;;;;;5.70;2.63;;;;;;;18.62;62.40;100612.16;5083187;28;20067;-40
2023/11/27 01:36:17;;;;;;;3.97;2.67;;;;;;;18.60;62.19;100604.19;5081018;28;20188;-36
2023/11/27 01:38:42;;;;;;;5.82;2.70;;;;;;;18.58;62.21;100593.53;5083881;28;20258;-44
2023/11/27 01:41:08;;;;;;;4.47;2.80;;;;;;;18.57;62.55;100594.63;5078923;28;20038;-44
2023/11/27 01:43:33;;;;;;;3.60;2.40;;;;;;;18.56;62.23;100586.69;5085288;28;20421;-44
2023/11/27 01:46:25;;;;;;;3.47;2.50;;;;;;;18.55;62.08;100583.13;5085536;28;20516;-44
2023/11/27 01:48:54;;;;;;;4.15;2.53;;;;;;;18.54;62.18;100573.25;5087000;28;20066;-43
2023/11/27 01:51:24;;;;;;;4.85;2.75;;;;;;;18.53;62.41;100568.88;5095783;28;20031;-45
2023/11/27 01:53:50;;;;;;;4.50;2.85;;;;;;;18.53;62.12;100559.81;5094149;28;20441;-44
2023/11/27 01:56:16;;;;;;;6.72;2.80;;;;;;;18.51;62.09;100557.34;5081361;28;20016;-44
2023/11/27 01:58:44;;;;;;;3.33;2.45;;;;;;;18.51;62.30;100554.59;5079205;28;20036;-44
2023/11/27 02:01:09;;;;;;;4.13;2.42;;;;;;;18.49;62.20;100545.03;5080274;28;20016;-44
2023/11/27 02:03:35;;;;;;;3.22;2.35;;;;;;;18.50;62.25;100535.69;5084844;28;20063;-44
2023/11/27 02:06:00;;;;;;;4.05;2.22;;;;;;;18.49;62.23;100528.56;5088546;28;20035;-44
2023/11/27 02:08:27;;;;;;;4.80;2.75;;;;;;;18.48;62.34;100527.75;5088061;28;20012;-44
2023/11/27 02:10:53;;;;;;;3.50;2.25;;;;;;;18.47;62.21;100528.00;5087177;28;20430;-44
2023/11/27 02:13:18;;;;;;;4.53;2.60;;;;;;;18.46;62.15;100518.97;5082618;28;20024;-44
2023/11/27 02:15:44;;;;;;;3.38;2.20;;;;;;;18.45;62.31;100514.59;5093505;28;20685;-43
2023/11/27 02:18:10;;;;;;;3.08;2.20;;;;;;;18.44;62.12;100516.53;5088302;28;20024;-44
2023/11/27 02:20:35;;;;;;;3.47;2.40;;;;;;;18.44;62.34;100501.97;5079381;28;20035;-44
2023/11/27 02:23:00;;;;;;;3.42;2.10;;;;;;;18.43;62.07;100505.84;5089985;28;20051;-44
2023/11/27 02:25:26;;;;;;;4.47;2.42;;;;;;;18.43;62.02;100503.09;5081876;28;20032;-44
2023/11/27 02:27:52;;;;;;;4.85;2.55;;;;;;;18.41;62.02;100491.59;5083963;28;20169;-44
2023/11/27 02:30:20;;;;;;;3.28;2.20;;;;;;;18.40;62.16;100487.19;5086908;28;20024;-43
2023/11/27 02:32:46;;;;;;;3.85;2.20;;;;;;;18.40;62.00;100484.47;5088171;28;20024;-44
2023/11/27 02:35:12;;;;;;;2.55;2.00;;;;;;;18.39;62.04;100486.41;5093305;28;20035;-44
2023/11/27 02:37:37;;;;;;;2.80;2.20;;;;;;;18.38;62.08;100473.78;5091953;28;20036;-44
2023/11/27 02:40:05;;;;;;;3.30;2.28;;;;;;;18.35;62.03;100463.38;5081817;28;20029;-44
2023/11/27 02:42:30;;;;;;;3.90;2.30;;;;;;;18.35;62.23;100454.34;5086136;28;20028;-44
2023/11/27 02:44:56;;;;;;;3.53;2.13;;;;;;;18.34;62.13;100456.25;5079922;28;20494;-44
2023/11/27 02:47:22;;;;;;;4.45;2.35;;;;;;;18.32;62.20;100449.41;5088939;28;20148;-44
2023/11/27 02:49:48;;;;;;;3.40;2.03;;;;;;;18.33;62.13;100445.56;5117379;27;20394;-44
2023/11/27 02:52:14;;;;;;;3.50;2.10;;;;;;;18.32;61.98;100442.00;5086527;28;20035;-44
2023/11/27 02:54:39;;;;;;;3.47;2.22;;;;;;;18.31;62.00;100432.13;5087040;28;20028;-44
2023/11/27 02:57:04;;;;;;;2.88;2.03;;;;;;;18.30;62.07;100438.72;5088217;28;20047;-44
2023/11/27 02:59:30;;;;;;;2.42;2.08;;;;;;;18.28;61.86;100421.72;5085478;28;20494;-45
2023/11/27 03:01:55;;;;;;;3.63;2.30;;;;;;;18.28;62.12;100419.81;5090825;28;20059;-44
2023/11/27 03:04:23;;;;;;;3.05;2.38;;;;;;;18.27;61.87;100420.09;5090757;28;20012;-44
2023/11/27 03:06:48;;;;;;;3.25;1.92;;;;;;;18.26;61.73;100421.22;5097186;28;20416;-44
2023/11/27 03:09:16;;;;;;;2.67;1.92;;;;;;;18.26;62.09;100413.00;5089954;28;20468;-34
2023/11/27 03:11:42;;;;;;;2.95;2.00;;;;;;;18.31;62.45;100401.13;5084945;28;20082;-43
2023/11/27 03:14:08;;;;;;;9.75;2.00;;;;;;;18.40;62.33;100399.41;5087431;28;20048;-34
2023/11/27 03:16:33;;;;;;;6.00;2.10;;;;;;;18.47;62.67;100401.78;5082263;28;20032;-34
2023/11/27 03:18:58;;;;;;;2.20;1.77;;;;;;;18.55;62.63;100387.44;5086956;28;20025;-34
2023/11/27 03:21:24;;;;;;;6.65;1.95;;;;;;;18.62;62.54;100382.44;5086271;28;20100;-34
2023/11/27 03:23:50;;;;;;;5.25;1.83;;;;;;;18.69;62.27;100373.84;5079662;28;20471;-34
2023/11/27 03:26:16;;;;;;;2.20;1.80;;;;;;;18.77;62.50;100378.69;5088365;28;20020;-35
2023/11/27 03:28:42;;;;;;;3.83;2.20;;;;;;;18.85;62.31;100366.25;5087212;28;20020;-34
2023/11/27 03:31:09;;;;;;;3.25;1.90;;;;;;;18.91;61.96;100362.34;5083950;28;20024;-34
2023/11/27 03:33:34;;;;;;;3.25;2.00;;;;;;;18.96;61.88;100350.47;5086479;28;20024;-36
2023/11/27 03:35:59;;;;;;;2.13;1.90;;;;;;;19.01;61.58;100348.47;5087664;28;20032;-34
2023/11/27 03:38:25;;;;;;;2.47;1.70;;;;;;;19.07;61.62;100355.53;5085641;28;20207;-33
2023/11/27 03:40:50;;;;;;;2.45;1.90;;;;;;;19.12;61.55;100342.84;5079621;28;20105;-34
2023/11/27 03:43:16;;;;;;;12.95;1.88;;;;;;;19.14;61.26;100346.94;5085898;28;20095;-36
2023/11/27 03:45:42;;;;;;;4.82;1.90;;;;;;;19.15;61.08;100343.06;5087379;28;20051;-35
2023/11/27 03:48:07;;;;;;;9.50;2.00;;;;;;;19.12;60.60;100335.41;5087183;28;20459;-34
2023/11/27 03:50:33;;;;;;;5.10;1.98;;;;;;;19.08;60.59;100332.44;5089320;28;20101;-34
2023/11/27 03:52:59;;;;;;;5.03;1.67;;;;;;;19.02;60.40;100328.16;5093181;28;20128;-35
2023/11/27 03:55:24;;;;;;;4.28;1.80;;;;;;;18.97;60.68;100313.66;5086423;28;20136;-35
2023/11/27 03:57:50;;;;;;;3.90;1.65;;;;;;;18.91;60.51;100315.66;5084679;28;20132;-35
2023/11/27 04:00:17;;;;;;;2.45;1.65;;;;;;;18.87;60.68;100309.09;5083902;28;20441;-34
2023/11/27 04:02:43;;;;;;;1.77;1.67;;;;;;;18.82;60.52;100295.44;5084644;28;20055;-35
2023/11/27 04:05:09;;;;;;;3.33;1.52;;;;;;;18.77;60.68;100296.31;5078192;28;20432;-34
2023/11/27 04:07:35;;;;;;;2.38;1.67;;;;;;;18.72;60.40;100286.25;5086783;28;20008;-34
2023/11/27 04:10:00;;;;;;;3.08;1.55;;;;;;;18.69;60.78;100275.03;5090182;28;20591;-44
2023/11/27 04:12:25;;;;;;;2.90;1.70;;;;;;;18.64;60.55;100267.69;5086280;28;20066;-44
2023/11/27 04:14:51;;;;;;;2.10;1.63;;;;;;;18.61;60.65;100268.25;5084081;28;20499;-44
2023/11/27 04:17:17;;;;;;;2.15;1.45;;;;;;;18.58;60.73;100266.13;5081185;28;20411;-44
2023/11/27 04:19:42;;;;;;;1.88;1.60;;;;;;;18.54;60.79;100263.16;5086602;28;20074;-44
2023/11/27 04:22:08;;;;;;;1.83;1.60;;;;;;;18.52;60.84;100250.84;5085847;28;20031;-44
2023/11/27 04:24:33;;;;;;;2.30;1.50;;;;;;;18.49;60.86;100248.66;5087894;28;20436;-35
2023/11/27 04:26:59;;;;;;;1.63;1.40;;;;;;;18.47;60.82;100237.16;5087275;28;20028;-35
2023/11/27 04:29:24;;;;;;;1.55;1.40;;;;;;;18.45;60.82;100231.97;5089476;28;20023;-36
2023/11/27 04:31:49;;;;;;;1.50;1.40;;;;;;;18.42;60.96;100229.81;5092436;28;20055;-35
2023/11/27 04:34:15;;;;;;;1.30;1.30;;;;;;;18.39;60.94;100228.50;5088063;28;20125;-35
2023/11/27 04:36:41;;;;;;;1.80;1.55;;;;;;;18.39;61.15;100228.50;5097504;28;20032;-33
2023/11/27 04:39:10;;;;;;;1.58;1.48;;;;;;;18.37;60.90;100214.25;5084945;28;20043;-34
2023/11/27 04:41:42;;;;;;;1.63;1.52;;;;;;;18.36;60.55;100212.59;5080817;28;20054;-34
2023/11/27 04:44:08;;;;;;;1.73;1.55;;;;;;;18.34;60.64;100205.78;5080978;28;20069;-34
2023/11/27 04:46:33;;;;;;;1.98;1.60;;;;;;;18.34;60.76;100200.28;5079569;28;20032;-37
2023/11/27 04:48:59;;;;;;;1.67;1.58;;;;;;;18.32;60.97;100194.28;5083900;28;20016;-34
2023/11/27 04:51:24;;;;;;;1.40;1.30;;;;;;;18.31;60.70;100192.66;5087641;28;20027;-35
2023/11/27 04:53:49;;;;;;;1.75;1.40;;;;;;;18.27;60.79;100179.53;5099405;28;20031;-44
2023/11/27 04:56:15;;;;;;;2.00;1.67;;;;;;;18.26;60.91;100182.56;5093493;28;20067;-44
2023/11/27 04:58:41;;;;;;;2.17;1.50;;;;;;;18.25;60.75;100184.50;5087333;28;20766;-44
2023/11/27 05:01:06;;;;;;;2.63;1.42;;;;;;;18.24;60.97;100171.06;5122261;27;20032;-44
2023/11/27 05:03:32;;;;;;;1.60;1.50;;;;;;;18.22;60.80;100162.31;5092337;28;20068;-43
2023/11/27 05:06:00;;;;;;;1.70;1.58;;;;;;;18.22;60.80;100162.31;5077931;28;20027;-43
2023/11/27 05:08:25;;;;;;;1.52;1.42;;;;;;;18.20;60.92;100153.59;5078026;28;20024;-43
2023/11/27 05:10:51;;;;;;;1.73;1.60;;;;;;;18.19;60.83;100154.69;5086352;28;20035;-43
2023/11/27 05:13:17;;;;;;;1.50;1.40;;;;;;;18.17;60.74;100146.72;5084874;28;20373;-43
2023/11/27 05:15:42;;;;;;;1.77;1.40;;;;;;;18.16;60.70;100141.56;5125131;27;20032;-43
2023/11/27 05:18:08;;;;;;;1.48;1.35;;;;;;;18.16;60.96;100136.06;5082577;28;20036;-43
2023/11/27 05:20:33;;;;;;;1.50;1.40;;;;;;;18.15;60.64;100134.44;5085260;28;20113;-35
2023/11/27 05:23:02;;;;;;;1.50;1.40;;;;;;;18.13;60.80;100129.25;5079740;28;20020;-36
2023/11/27 05:25:27;;;;;;;1.77;1.60;;;;;;;18.12;60.88;100122.13;5077926;28;20073;-34
2023/11/27 05:27:53;;;;;;;1.40;1.30;;;;;;;18.11;60.97;100121.31;5083141;28;20465;-35
2023/11/27 05:30:19;;;;;;;1.50;1.30;;;;;;;18.10;60.86;100116.94;5090633;28;20040;-43
2023/11/27 05:32:45;;;;;;;1.33;1.23;;;;;;;18.09;60.75;100109.81;5096631;28;20103;-43
2023/11/27 05:35:10;;;;;;;1.30;1.20;;;;;;;18.08;60.84;100112.88;5086376;28;20102;-43
2023/11/27 05:37:36;;;;;;;1.50;1.40;;;;;;;18.08;60.83;100104.63;5081998;28;20487;-36
2023/11/27 05:40:01;;;;;;;1.48;1.33;;;;;;;18.07;60.66;100092.03;5091808;28;20032;-36
2023/11/27 05:42:27;;;;;;;1.60;1.50;;;;;;;18.06;60.62;100090.41;5081781;28;20138;-34
2023/11/27 05:44:59;;;;;;;1.30;1.20;;;;;;;18.06;60.84;100084.91;5076749;28;20503;-33
2023/11/27 05:47:24;;;;;;;1.58;1.25;;;;;;;18.05;60.85;100091.50;5073222;28;20258;-33
2023/11/27 05:49:52;;;;;;;1.40;1.30;;;;;;;18.04;60.92;100079.75;5087627;28;20494;-37
2023/11/27 05:52:17;;;;;;;1.35;1.25;;;;;;;18.02;60.81;100081.16;5088979;28;20480;-37
2023/11/27 05:54:43;;;;;;;1.35;1.25;;;;;;;18.01;61.00;100077.56;5087103;28;20039;-37
2023/11/27 05:57:08;;;;;;;1.45;1.30;;;;;;;18.01;61.12;100066.59;5098685;28;20051;-37
2023/11/27 05:59:33;;;;;;;1.30;1.20;;;;;;;18.02;61.06;100072.91;5088747;28;20051;-37
2023/11/27 06:01:59;;;;;;;1.90;1.20;;;;;;;18.05;61.18;100058.59;5082682;28;20051;-36
2023/11/27 06:04:26;;;;;;;1.20;1.10;;;;;;;18.10;60.96;100056.63;5094828;28;20426;-36
2023/11/27 06:06:52;;;;;;;1.23;1.08;;;;;;;18.14;61.15;100053.28;5089580;28;20024;-37
2023/11/27 06:09:17;;;;;;;1.30;1.20;;;;;;;18.20;61.14;100049.38;5089514;28;20388;-37
2023/11/27 06:11:43;;;;;;;1.13;1.08;;;;;;;18.27;61.03;100044.28;5089710;28;20106;-32
2023/11/27 06:14:08;;;;;;;1.30;1.20;;;;;;;18.33;60.52;100045.88;5095867;28;20392;-33
2023/11/27 06:16:33;;;;;;;1.30;1.20;;;;;;;18.42;60.88;100032.28;5116504;27;20026;-34
2023/11/27 06:18:59;;;;;;;1.35;1.25;;;;;;;18.51;60.62;100021.44;5087135;28;20020;-36
2023/11/27 06:21:24;;;;;;;1.30;1.20;;;;;;;18.58;60.57;100011.69;5087785;28;20456;-37
2023/11/27 06:23:51;;;;;;;1.92;1.10;;;;;;;18.68;60.57;100004.41;5087824;28;20020;-37
2023/11/27 06:26:17;;;;;;;1.10;1.10;;;;;;;18.77;60.54;99995.19;5075939;28;20066;-37
2023/11/27 06:28:43;;;;;;;1.30;1.20;;;;;;;18.87;60.20;99988.69;5086191;28;20044;-36
2023/11/27 06:31:09;;;;;;;1.30;1.20;;;;;;;18.97;60.25;99987.72;5086113;28;20027;-35
2023/11/27 06:33:34;;;;;;;1.10;1.10;;;;;;;19.06;60.25;99974.88;5098725;28;20023;-33
2023/11/27 06:36:00;;;;;;;1.45;1.35;;;;;;;19.15;59.90;99968.69;5088782;28;20047;-36
2023/11/27 06:38:25;;;;;;;1.15;1.08;;;;;;;19.23;59.68;99963.28;5088727;28;20032;-37
2023/11/27 06:40:51;;;;;;;3.03;1.33;;;;;;;19.32;59.73;99962.56;5082707;28;20459;-34
2023/11/27 06:43:16;;;;;;;1.05;1.00;;;;;;;19.39;59.69;99954.75;5086796;28;20027;-34
2023/11/27 06:45:42;;;;;;;1.20;1.10;;;;;;;19.48;59.33;99950.13;5090083;28;20094;-34
2023/11/27 06:48:08;;;;;;;1.25;1.15;;;;;;;19.56;59.23;99951.34;5078961;28;20146;-34
2023/11/27 06:50:33;;;;;;;1.00;1.00;;;;;;;19.63;59.11;99950.91;5085918;28;20035;-34
2023/11/27 06:52:59;;;;;;;1.45;1.23;;;;;;;19.72;59.12;99949.06;5088051;28;20024;-37
2023/11/27 06:55:24;;;;;;;1.20;1.10;;;;;;;19.79;59.31;99948.63;5087619;28;20024;-37
2023/11/27 06:57:50;;;;;;;1.10;1.00;;;;;;;19.86;59.10;99943.56;5087225;28;20072;-37
2023/11/27 07:00:16;;;;;;;1.25;1.15;;;;;;;19.92;59.11;99942.31;5093217;28;20036;-38
2023/11/27 07:02:41;;;;;;;1.52;1.20;;;;;;;19.97;58.71;99936.66;5087456;28;20020;-37
2023/11/27 07:05:09;;;;;;;2.10;1.20;;;;;;;20.01;58.54;99926.69;5087271;28;20561;-37
2023/11/27 07:07:34;;;;;;;3.90;1.20;;;;;;;20.08;58.76;99929.00;5087917;28;20028;-34
2023/11/27 07:10:00;;;;;;;1.48;1.10;;;;;;;20.11;58.56;99922.88;5086678;28;20204;-34
2023/11/27 07:12:25;;;;;;;1.10;1.10;;;;;;;20.17;58.53;99929.03;5087940;28;20059;-33
2023/11/27 07:14:51;;;;;;;1.20;1.10;;;;;;;20.20;58.13;99918.22;5085288;28;20046;-36
2023/11/27 07:17:16;;;;;;;1.20;1.10;;;;;;;20.23;58.59;99916.78;5084009;28;20028;-37
2023/11/27 07:19:42;;;;;;;1.30;1.20;;;;;;;20.27;58.15;99915.06;5083060;28;20111;-37
2023/11/27 07:22:08;;;;;;;1.20;1.10;;;;;;;20.31;58.17;99906.97;5081881;28;20415;-37
2023/11/27 07:24:33;;;;;;;1.20;1.10;;;;;;;20.34;58.03;99907.16;5082690;28;20106;-37
2023/11/27 07:26:59;;;;;;;2.20;1.20;;;;;;;20.38;58.24;99901.84;5086967;28;20090;-38
2023/11/27 07:29:24;;;;;;;1.02;1.00;;;;;;;20.42;58.26;99902.03;5087426;28;20465;-37
2023/11/27 07:31:50;;;;;;;4.80;1.20;;;;;;;20.45;58.03;99898.63;5085121;28;20474;-37
2023/11/27 07:34:15;;;;;;;1.10;1.00;;;;;;;20.47;58.05;99891.66;5086675;28;20578;-38
2023/11/27 07:36:40;;;;;;;1.65;1.20;;;;;;;20.47;57.94;99883.41;5094822;28;20178;-37
2023/11/27 07:39:10;;;;;;;1.30;1.20;;;;;;;20.45;57.76;99871.94;5086022;28;20492;-37
2023/11/27 07:41:36;;;;;;;2.22;1.15;;;;;;;20.46;58.08;99872.72;5090897;28;20035;-37
2023/11/27 07:44:02;;;;;;;1.30;1.20;;;;;;;20.45;57.76;99873.84;5097660;28;20371;-35
2023/11/27 07:46:28;;;;;;;1.77;1.10;;;;;;;20.43;57.98;99865.91;5087416;28;20024;-33
2023/11/27 07:48:53;;;;;;;1.20;1.10;;;;;;;20.43;57.75;99867.84;5094050;28;20051;-33
2023/11/27 07:51:19;;;;;;;1.73;1.20;;;;;;;20.40;57.74;99863.00;5089802;28;20034;-34
2023/11/27 07:53:47;;;;;;;1.38;1.20;;;;;;;20.37;57.71;99856.19;5078287;28;20498;-34
2023/11/27 07:56:13;;;;;;;1.92;1.10;;;;;;;20.33;57.56;99845.00;5084318;28;20028;-34
2023/11/27 07:58:40;;;;;;;2.90;1.10;;;;;;;20.29;57.96;99846.75;5072734;28;20290;-34
2023/11/27 08:01:06;;;;;;;1.10;1.00;;;;;;;20.25;58.10;99839.47;5087464;28;20507;-35
2023/11/27 08:03:31;;;;;;;1.10;1.02;;;;;;;20.22;57.73;99843.66;5078879;28;20078;-33
2023/11/27 08:05:59;;;;;;;1.77;1.00;;;;;;;20.19;57.87;99831.31;5089961;28;20032;-37
2023/11/27 08:08:25;;;;;;;1.00;1.00;;;;;;;20.15;58.09;99835.03;5078039;28;20404;-36
2023/11/27 08:10:50;;;;;;;1.63;1.10;;;;;;;20.10;58.15;99830.47;5099770;28;20163;-37
2023/11/27 08:13:15;;;;;;;1.30;1.20;;;;;;;20.03;57.95;99827.34;5084159;28;20032;-37
2023/11/27 08:15:42;;;;;;;1.52;1.15;;;;;;;19.97;58.28;99836.88;5087455;28;20038;-37
2023/11/27 08:18:08;;;;;;;1.30;1.20;;;;;;;19.91;58.04;99836.19;5098980;28;20020;-37
2023/11/27 08:20:38;;;;;;;1.17;1.10;;;;;;;19.85;58.27;99829.19;5086844;28;20074;-37
2023/11/27 08:23:03;;;;;;;1.42;1.02;;;;;;;19.79;58.38;99820.25;5089022;28;20020;-37
2023/11/27 08:25:29;;;;;;;1.10;1.00;;;;;;;19.73;58.36;99819.53;5087115;28;20077;-36
2023/11/27 08:27:55;;;;;;;1.30;1.20;;;;;;;19.70;58.38;99813.88;5084102;28;20438;-36
2023/11/27 08:30:22;;;;;;;1.17;1.00;;;;;;;19.64;58.31;99810.41;5086839;28;20069;-37
2023/11/27 08:32:48;;;;;;;1.20;1.10;;;;;;;19.60;58.58;99794.88;5118720;27;20019;-34
2023/11/27 08:35:14;;;;;;;11.50;1.60;;;;;;;19.58;58.59;99797.13;5088792;28;20279;-33
2023/11/27 08:37:40;;;;;;;3.80;1.38;;;;;;;19.55;59.21;99787.56;5085075;28;20054;-33
2023/11/27 08:40:06;;;;;;;6.03;1.40;;;;;;;19.54;59.43;99778.50;5092381;28;20031;-37
2023/11/27 08:42:34;;;;;;;4.78;1.55;;;;;;;19.58;59.32;99783.38;5090950;28;20043;-37
2023/11/27 08:45:01;;;;;;;2.60;1.42;;;;;;;19.60;59.30;99779.19;5084258;28;20373;-37
2023/11/27 08:47:26;;;;;;;3.55;1.52;;;;;;;19.63;59.24;99769.50;5081223;28;20104;-37
2023/11/27 08:49:51;;;;;;;4.43;1.30;;;;;;;19.64;59.08;99771.94;5090616;28;20463;-37
2023/11/27 08:52:17;;;;;;;3.50;1.40;;;;;;;19.66;58.73;99761.44;5076959;28;20027;-37
2023/11/27 08:54:42;;;;;;;2.00;1.70;;;;;;;19.68;58.89;99755.63;5085917;28;20511;-33
2023/11/27 08:57:10;;;;;;;2.92;2.00;;;;;;;19.69;58.62;99754.50;5083722;28;20048;-38
2023/11/27 08:59:36;;;;;;;2.17;1.70;;;;;;;19.70;58.51;99756.94;5083305;28;20052;-37
2023/11/27 09:02:02;;;;;;;2.88;1.90;;;;;;;19.70;58.38;99745.94;5089926;28;20248;-36
2023/11/27 09:04:27;;;;;;;3.58;2.00;;;;;;;19.72;58.31;99748.41;5087006;28;20030;-37
2023/11/27 09:06:53;;;;;;;4.50;1.98;;;;;;;19.74;58.34;99740.63;5085608;28;20106;-38
2023/11/27 09:09:18;;;;;;;6.47;2.10;;;;;;;19.76;58.38;99732.09;5087193;28;20312;-38
2023/11/27 09:11:44;;;;;;;12.57;5.03;;;;;;;19.78;58.40;99730.63;5089262;28;20454;-38
2023/11/27 09:14:09;;;;;;;21.25;6.63;;;;;;;19.81;58.51;99721.75;5087739;28;20209;-37
2023/11/27 09:16:35;;;;;;;13.23;5.22;;;;;;;19.85;58.18;99721.94;5097758;28;20358;-36
2023/11/27 09:19:01;;;;;;;9.07;4.90;;;;;;;19.88;58.37;99715.84;5098311;28;20042;-39
2023/11/27 09:21:26;;;;;;;10.52;4.22;;;;;;;19.93;58.13;99714.88;5100922;28;20030;-40
2023/11/27 09:23:54;;;;;;;11.00;4.05;;;;;;;19.97;58.06;99708.41;5085682;28;20024;-32
2023/11/27 09:26:19;;;;;;;7.80;3.53;;;;;;;20.00;58.02;99705.03;5087145;28;20107;-32
2023/11/27 09:28:47;;;;;;;6.65;3.55;;;;;;;20.04;57.63;99706.03;5084974;28;20508;-33
2023/11/27 09:31:14;;;;;;;9.77;3.20;;;;;;;20.09;57.72;99701.53;5084398;28;20020;-33
2023/11/27 09:33:41;;;;;;;5.88;3.30;;;;;;;20.12;58.09;99707.19;5085865;28;20469;-34
2023/11/27 09:36:13;;;;;;;6.85;2.85;;;;;;;20.17;57.65;99708.97;5081241;28;20367;-43
2023/11/27 09:38:40;;;;;;;7.40;3.30;;;;;;;20.21;57.72;99704.47;5094009;28;20027;-44
2023/11/27 09:41:07;;;;;;;6.93;3.15;;;;;;;20.25;57.63;99699.94;5082839;28;20015;-34
2023/11/27 09:43:33;;;;;;;4.75;3.03;;;;;;;20.27;57.90;99700.44;5084851;28;20051;-33
2023/11/27 09:45:59;;;;;;;24.45;5.97;;;;;;;20.30;57.72;99693.50;5086316;28;20412;-44
2023/11/27 09:48:26;;;;;;;27.77;8.45;;;;;;;20.32;57.66;99685.72;5080588;28;20423;-44
2023/11/27 09:50:57;;;;;;;54.13;12.10;;;;;;;20.34;58.04;99684.28;5082636;28;20069;-43
2023/11/27 09:53:27;;;;;;;98.50;16.83;;;;;;;20.35;57.57;99682.31;5106231;28;20023;-43
2023/11/27 09:55:53;;;;;;;80.65;14.88;;;;;;;20.36;57.79;99678.44;5084049;28;20035;-44
2023/11/27 09:58:21;;;;;;;196.35;20.35;;;;;;;20.34;57.91;99678.78;5112138;27;20485;-44
2023/11/27 10:00:48;;;;;;;84.30;14.40;;;;;;;20.31;57.79;99684.91;5082229;28;20039;-44
2023/11/27 10:03:14;;;;;;;62.05;12.63;;;;;;;20.28;57.83;99680.06;5099845;28;20051;-44
2023/11/27 10:05:43;;;;;;;59.10;12.48;;;;;;;20.24;57.57;99676.31;5080955;28;20081;-44
2023/11/27 10:08:09;;;;;;;44.03;9.93;;;;;;;20.19;57.56;99670.97;5088075;28;20468;-44
2023/11/27 10:10:34;;;;;;;41.45;9.65;;;;;;;20.14;57.50;99665.63;5085973;28;20035;-44
2023/11/27 10:13:06;;;;;;;39.20;9.80;;;;;;;20.09;57.95;99666.56;5079378;28;20035;-44
2023/11/27 10:15:33;;;;;;;35.25;9.23;;;;;;;20.01;57.95;99651.66;5078799;28;20138;-43
2023/11/27 10:18:00;;;;;;;32.75;8.82;;;;;;;19.97;57.85;99650.66;5095800;28;20177;-44
2023/11/27 10:20:26;;;;;;;26.83;7.75;;;;;;;19.94;57.88;99647.75;5086156;28;20080;-44
2023/11/27 10:22:54;;;;;;;39.22;8.32;;;;;;;19.92;58.31;99639.81;5074123;28;20083;-44
2023/11/27 10:25:23;;;;;;;36.95;8.65;;;;;;;19.90;58.33;99633.81;5092575;28;20016;-37
2023/11/27 10:27:58;;;;;;;34.17;7.25;;;;;;;19.90;58.60;99631.06;5084338;28;20115;-37
2023/11/27 10:30:25;;;;;;;15.40;5.28;;;;;;;19.91;58.48;99629.16;5075929;28;20027;-39
2023/11/27 10:32:52;;;;;;;29.80;5.55;;;;;;;19.92;58.38;99636.28;5084103;28;20039;-35
2023/11/27 10:35:17;;;;;;;15.05;4.65;;;;;;;19.94;58.45;99620.25;5085755;28;20031;-39
2023/11/27 10:37:43;;;;;;;20.10;4.95;;;;;;;19.96;58.44;99618.81;5094998;28;20088;-39
2023/11/27 10:40:15;;;;;;;16.83;4.30;;;;;;;20.00;58.53;99616.22;5084176;28;20376;-34
2023/11/27 10:42:47;;;;;;;17.25;4.18;;;;;;;20.05;57.95;99618.84;5088050;28;20076;-33
2023/11/27 10:45:15;;;;;;;10.52;3.75;;;;;;;20.08;57.88;99609.94;5083324;28;20488;-34
2023/11/27 10:47:44;;;;;;;11.43;3.55;;;;;;;20.12;57.79;99596.34;5087979;28;20630;-38
2023/11/27 10:50:12;;;;;;;10.15;3.35;;;;;;;20.14;57.87;99596.84;5077604;28;20028;-33
2023/11/27 10:52:40;;;;;;;6.97;3.00;;;;;;;20.17;57.81;99593.44;5086520;28;20110;-33
2023/11/27 10:55:06;;;;;;;7.60;2.85;;;;;;;20.20;57.79;99596.34;5085912;28;21860;-33
2023/11/27 10:57:32;;;;;;;7.00;2.78;;;;;;;20.23;57.53;99585.84;5088036;28;20059;-33
2023/11/27 10:59:58;;;;;;;6.20;2.45;;;;;;;20.25;57.65;99581.66;5087550;28;20032;-34
2023/11/27 11:02:25;;;;;;;5.72;3.05;;;;;;;20.26;57.63;99580.50;5083475;28;20028;-36
2023/11/27 11:04:55;;;;;;;5.50;2.40;;;;;;;20.29;57.58;99576.31;5083699;28;20136;-42
2023/11/27 11:07:35;;;;;;;5.03;2.33;;;;;;;20.31;57.49;99576.81;5083187;28;20825;-35
2023/11/27 11:10:05;;;;;;;6.68;2.90;;;;;;;20.33;57.24;99572.59;5109932;27;20103;-44
2023/11/27 11:12:31;;;;;;;4.93;2.22;;;;;;;20.36;57.37;99563.69;5085783;28;20032;-44
2023/11/27 11:14:56;;;;;;;3.83;2.20;;;;;;;20.39;57.28;99555.91;5082143;28;20446;-34
2023/11/27 11:17:23;;;;;;;3.83;2.60;;;;;;;20.38;56.88;99557.88;5086038;28;20051;-36
2023/11/27 11:20:01;;;;;;;3.35;2.00;;;;;;;20.37;56.96;99550.75;5085187;28;20490;-35
2023/11/27 11:22:30;;;;;;;3.60;2.03;;;;;;;20.34;57.22;99548.63;5082051;28;20068;-33